Time;durP1;ratioP1;P1;durP2;ratioP2;P2;SDS_P1;SDS_P2;PMS_P1;PMS_P2;Temp;Humidity;BMP_temperature;BMP_pressure;BME280_temperature;BME280_humidity;BME280_pressure;Samples;Min_cycle;Max_cycle;Signal;HPM_P1;HPM_P2
2022/04/24 00:00:06;;;;;;;;;;;9.70;99.90;10.10;97734.00;;;;340351;28;88162;-91
2022/04/24 00:00:18;;;;;;;;;;;9.70;99.90;10.10;97735.00;;;;339324;28;89428;-91
2022/04/24 00:00:29;;;;;;;;;;;9.60;99.90;10.10;97742.00;;;;341668;28;86929;-92
2022/04/24 00:00:41;;;;;;;;;;;9.70;99.90;10.10;97733.00;;;;340546;28;91045;-91
2022/04/24 00:00:53;;;;;;;;;;;9.60;99.90;10.20;97739.00;;;;340303;28;86934;-91
2022/04/24 00:01:06;;;;;;;;;;;9.70;99.90;10.10;97732.00;;;;340468;28;90745;-91
2022/04/24 00:01:18;;;;;;;;;;;9.70;99.90;10.10;97735.00;;;;343023;28;86959;-91
2022/04/24 00:01:30;;;;;;;;;;;9.70;99.90;10.10;97735.00;;;;341834;28;90592;-91
2022/04/24 00:01:42;;;;;;;;;;;9.70;99.90;10.20;97735.00;;;;341997;28;87544;-91
2022/04/24 00:01:54;;;;;;;;;;;9.70;99.90;10.10;97730.00;;;;339505;28;90506;-91
2022/04/24 00:02:07;;;;;;;;;;;9.70;99.90;10.10;97730.00;;;;340376;28;87276;-91
2022/04/24 00:02:19;;;;;;;;;;;9.70;99.90;10.10;97736.00;;;;339307;28;89547;-90
2022/04/24 00:02:31;;;;;;;;;;;9.70;99.90;10.10;97741.00;;;;340200;28;88307;-92
2022/04/24 00:02:43;;;;;;;;;;;9.60;99.90;10.00;97735.00;;;;340535;28;91180;-92
2022/04/24 00:02:55;;;;;;;;;;;9.60;99.90;10.10;97732.00;;;;340177;28;88203;-91
2022/04/24 00:03:07;;;;;;;;;;;9.60;99.90;10.00;97732.00;;;;340357;28;91838;-91
2022/04/24 00:03:19;;;;;;;;;;;9.60;99.90;10.00;97737.00;;;;340059;28;86954;-91
2022/04/24 00:03:31;;;;;;;;;;;9.60;99.90;10.10;97739.00;;;;339221;28;90444;-91
2022/04/24 00:03:43;;;;;;;;;;;9.60;99.90;10.10;97733.00;;;;338897;28;87941;-91
2022/04/24 00:03:55;;;;;;;;;;;9.60;99.90;10.10;97739.00;;;;340519;28;90253;-91
2022/04/24 00:04:07;;;;;;;;;;;9.60;99.90;10.10;97730.00;;;;340303;28;87244;-91
2022/04/24 00:04:19;;;;;;;;;;;9.60;99.90;10.10;97734.00;;;;340607;28;88825;-91
2022/04/24 00:04:31;;;;;;;;;;;9.60;99.90;10.00;97725.00;;;;341666;28;86852;-91
2022/04/24 00:04:43;;;;;;;;;;;9.60;99.90;10.10;97728.00;;;;341024;28;89563;-92
2022/04/24 00:04:54;;;;;;;;;;;9.60;99.90;10.10;97743.00;;;;339823;28;87312;-92
2022/04/24 00:05:06;;;;;;;;;;;9.60;99.90;10.00;97739.00;;;;340471;28;91141;-91
2022/04/24 00:05:18;;;;;;;;;;;9.60;99.90;10.00;97733.00;;;;340371;28;86927;-91
2022/04/24 00:05:30;;;;;;;;;;;9.60;99.90;10.00;97732.00;;;;341948;28;90062;-92
2022/04/24 00:05:42;;;;;;;;;;;9.60;99.90;10.00;97736.00;;;;340586;28;87303;-91
2022/04/24 00:05:54;;;;;;;;;;;9.60;99.90;10.10;97731.00;;;;340479;28;90798;-91
2022/04/24 00:06:06;;;;;;;;;;;9.60;99.90;10.00;97739.00;;;;341672;28;87719;-91
2022/04/24 00:06:17;;;;;;;;;;;9.60;99.90;10.00;97742.00;;;;339183;28;89624;-91
2022/04/24 00:06:32;;;;;;;;;;;9.60;99.90;10.00;97739.00;;;;338865;28;88526;-91
2022/04/24 00:06:46;;;;;;;;;;;9.60;99.90;10.00;97741.00;;;;340516;28;91215;-91
2022/04/24 00:06:58;;;;;;;;;;;9.60;99.90;10.00;97741.00;;;;338902;28;86887;-91
2022/04/24 00:07:10;;;;;;;;;;;9.60;99.90;10.10;97747.00;;;;338970;28;89174;-91
2022/04/24 00:07:22;;;;;;;;;;;9.60;99.90;10.10;97734.00;;;;343099;28;87682;-91
2022/04/24 00:07:33;;;;;;;;;;;9.60;99.90;10.10;97739.00;;;;341961;28;89965;-91
2022/04/24 00:07:45;;;;;;;;;;;9.60;99.90;10.00;97741.00;;;;340969;28;88255;-91
2022/04/24 00:07:57;;;;;;;;;;;9.60;99.90;10.00;97745.00;;;;341008;28;90909;-91
2022/04/24 00:08:09;;;;;;;;;;;9.60;99.90;10.00;97742.00;;;;341579;28;87953;-91
2022/04/24 00:08:21;;;;;;;;;;;9.60;99.90;10.00;97745.00;;;;340542;28;89551;-92
2022/04/24 00:08:32;;;;;;;;;;;9.60;99.90;10.00;97745.00;;;;341538;28;87995;-91
2022/04/24 00:08:45;;;;;;;;;;;9.60;99.90;10.00;97740.00;;;;342471;28;90213;-92
2022/04/24 00:08:57;;;;;;;;;;;9.60;99.90;10.00;97742.00;;;;341745;28;87137;-92
2022/04/24 00:09:08;;;;;;;;;;;9.60;99.90;10.10;97741.00;;;;341771;28;91138;-91
2022/04/24 00:09:21;;;;;;;;;;;9.60;99.90;10.10;97736.00;;;;341664;28;86877;-91
2022/04/24 00:09:32;;;;;;;;;;;9.60;99.90;10.00;97748.00;;;;342916;28;90849;-92
2022/04/24 00:09:44;;;;;;;;;;;9.60;99.90;10.00;97747.00;;;;342898;28;86715;-92
2022/04/24 00:09:56;;;;;;;;;;;9.60;99.90;10.00;97749.00;;;;341962;28;89540;-92
2022/04/24 00:10:10;;;;;;;;;;;9.60;99.90;10.00;97746.00;;;;341721;28;87168;-91
2022/04/24 00:10:22;;;;;;;;;;;9.60;99.90;9.90;97749.00;;;;341944;28;89310;-91
2022/04/24 00:10:35;;;;;;;;;;;9.60;99.90;9.90;97743.00;;;;340275;28;87009;-91
2022/04/24 00:10:47;;;;;;;;;;;9.60;99.90;9.90;97740.00;;;;340095;28;91938;-91
2022/04/24 00:10:58;;;;;;;;;;;9.60;99.90;10.00;97740.00;;;;341462;28;88043;-91
2022/04/24 00:11:10;;;;;;;;;;;9.60;99.90;10.00;97748.00;;;;341756;28;91361;-91
2022/04/24 00:11:23;;;;;;;;;;;9.60;99.90;9.90;97752.00;;;;341647;28;87560;-91
2022/04/24 00:11:35;;;;;;;;;;;9.60;99.90;9.90;97749.00;;;;340706;28;87242;-91
2022/04/24 00:11:47;;;;;;;;;;;9.60;99.90;9.90;97746.00;;;;340261;28;87178;-91
2022/04/24 00:11:58;;;;;;;;;;;9.50;99.90;10.00;97746.00;;;;341948;28;90695;-91
2022/04/24 00:12:15;;;;;;;;;;;9.50;99.90;10.00;97745.00;;;;341687;28;88525;-91
2022/04/24 00:12:27;;;;;;;;;;;9.50;99.90;10.00;97741.00;;;;340481;28;90502;-91
2022/04/24 00:12:39;;;;;;;;;;;9.50;99.90;10.00;97749.00;;;;340309;28;86930;-91
2022/04/24 00:12:51;;;;;;;;;;;9.60;99.90;9.90;97745.00;;;;341839;28;90647;-91
2022/04/24 00:13:03;;;;;;;;;;;9.50;99.90;9.90;97738.00;;;;341359;28;87031;-92
2022/04/24 00:13:15;;;;;;;;;;;9.50;99.90;9.90;97735.00;;;;339253;28;90176;-91
2022/04/24 00:13:27;;;;;;;;;;;9.60;99.90;10.00;97733.00;;;;339018;28;87955;-91
2022/04/24 00:13:41;;;;;;;;;;;9.60;99.90;10.00;97741.00;;;;340588;28;91013;-92
2022/04/24 00:13:53;;;;;;;;;;;9.50;99.90;9.90;97734.00;;;;341330;28;88485;-92
2022/04/24 00:14:09;;;;;;;;;;;9.50;99.90;10.00;97739.00;;;;341966;28;90123;-90
2022/04/24 00:14:21;;;;;;;;;;;9.50;99.90;10.00;97741.00;;;;340323;28;87891;-91
2022/04/24 00:14:33;;;;;;;;;;;9.60;99.90;9.90;97740.00;;;;341909;28;90481;-92
2022/04/24 00:14:45;;;;;;;;;;;9.50;99.90;9.90;97729.00;;;;340198;28;87016;-92
2022/04/24 00:14:57;;;;;;;;;;;9.50;99.90;9.90;97745.00;;;;339279;28;91041;-91
2022/04/24 00:15:09;;;;;;;;;;;9.60;99.90;10.00;97738.00;;;;338804;28;88482;-91
2022/04/24 00:15:21;;;;;;;;;;;9.50;99.90;9.90;97736.00;;;;339215;28;90067;-91
2022/04/24 00:15:32;;;;;;;;;;;9.50;99.90;9.90;97735.00;;;;341706;28;88091;-92
2022/04/24 00:15:44;;;;;;;;;;;9.50;99.90;10.00;97731.00;;;;340502;28;89906;-92
2022/04/24 00:15:56;;;;;;;;;;;9.50;99.90;10.00;97734.00;;;;340370;28;87785;-92
2022/04/24 00:16:08;;;;;;;;;;;9.50;99.90;10.00;97735.00;;;;339178;28;90377;-92
2022/04/24 00:16:20;;;;;;;;;;;9.50;99.90;10.00;97728.00;;;;340379;28;87021;-92
2022/04/24 00:16:32;;;;;;;;;;;9.50;99.90;9.90;97736.00;;;;341894;28;90203;-91
2022/04/24 00:16:45;;;;;;;;;;;9.50;99.90;10.00;97729.00;;;;340966;28;87723;-92
2022/04/24 00:16:57;;;;;;;;;;;9.50;99.90;10.10;97737.00;;;;342300;28;91412;-91
2022/04/24 00:17:09;;;;;;;;;;;9.50;99.90;10.10;97732.00;;;;341449;28;86099;-91
2022/04/24 00:17:21;;;;;;;;;;;9.50;99.90;10.00;97732.00;;;;341893;28;90865;-91
2022/04/24 00:17:33;;;;;;;;;;;9.50;99.90;10.00;97735.00;;;;341679;28;86767;-91
2022/04/24 00:17:45;;;;;;;;;;;9.50;99.90;10.00;97728.00;;;;339015;28;91182;-92
2022/04/24 00:17:56;;;;;;;;;;;9.50;99.90;10.00;97730.00;;;;342961;28;88234;-92
2022/04/24 00:18:08;;;;;;;;;;;9.60;99.90;10.00;97726.00;;;;341942;28;90865;-91
2022/04/24 00:18:20;;;;;;;;;;;9.50;99.90;10.00;97732.00;;;;340354;28;87017;-91
2022/04/24 00:18:32;;;;;;;;;;;9.50;99.90;10.00;97731.00;;;;341836;28;90660;-92
2022/04/24 00:18:44;;;;;;;;;;;9.50;99.90;10.00;97730.00;;;;340413;28;86684;-92
2022/04/24 00:18:56;;;;;;;;;;;9.50;99.90;9.90;97721.00;;;;340624;28;89445;-92
2022/04/24 00:19:07;;;;;;;;;;;9.50;99.90;9.90;97727.00;;;;338916;28;88254;-92
2022/04/24 00:19:19;;;;;;;;;;;9.50;99.90;9.90;97725.00;;;;340599;28;91480;-91
2022/04/24 00:19:31;;;;;;;;;;;9.50;99.90;9.90;97737.00;;;;340287;28;88033;-92
2022/04/24 00:19:43;;;;;;;;;;;9.50;99.90;9.90;97727.00;;;;340933;28;90909;-91
2022/04/24 00:19:55;;;;;;;;;;;9.50;99.90;9.90;97727.00;;;;340292;28;87205;-92
2022/04/24 00:20:08;;;;;;;;;;;9.60;99.90;9.90;97718.00;;;;343069;28;90076;-92
2022/04/24 00:20:20;;;;;;;;;;;9.50;99.90;10.00;97734.00;;;;343011;28;86645;-92
2022/04/24 00:20:31;;;;;;;;;;;9.50;99.90;9.90;97729.00;;;;340550;28;89144;-92
2022/04/24 00:20:43;;;;;;;;;;;9.50;99.90;10.00;97723.00;;;;340279;28;87709;-91
2022/04/24 00:20:55;;;;;;;;;;;9.50;99.90;10.00;97723.00;;;;341824;28;90138;-91
2022/04/24 00:21:07;;;;;;;;;;;9.50;99.90;10.00;97730.00;;;;340261;28;87340;-91
2022/04/24 00:21:19;;;;;;;;;;;9.50;99.90;10.00;97724.00;;;;341952;28;89840;-92
2022/04/24 00:21:30;;;;;;;;;;;9.50;99.90;10.00;97727.00;;;;340346;28;87117;-92
2022/04/24 00:21:42;;;;;;;;;;;9.50;99.90;10.00;97735.00;;;;341872;28;90405;-91
2022/04/24 00:21:55;;;;;;;;;;;9.50;99.90;10.00;97734.00;;;;340226;28;88062;-92
2022/04/24 00:22:07;;;;;;;;;;;9.50;99.90;10.00;97732.00;;;;341882;28;90704;-91
2022/04/24 00:22:19;;;;;;;;;;;9.50;99.90;9.90;97726.00;;;;340384;28;86998;-92
2022/04/24 00:22:31;;;;;;;;;;;9.50;99.90;9.90;97732.00;;;;344178;28;89206;-92
2022/04/24 00:22:43;;;;;;;;;;;9.50;99.90;10.00;97735.00;;;;347202;28;13806;-91
2022/04/24 00:22:54;;;;;;;;;;;9.50;99.90;10.00;97739.00;;;;345727;28;13028;-91
2022/04/24 00:23:06;;;;;;;;;;;9.50;99.90;10.00;97731.00;;;;346642;28;11628;-92
2022/04/24 00:23:18;;;;;;;;;;;9.50;99.90;10.00;97736.00;;;;346813;28;10888;-92
2022/04/24 00:23:30;;;;;;;;;;;9.50;99.90;10.00;97735.00;;;;341591;28;88447;-91
2022/04/24 00:23:42;;;;;;;;;;;9.50;99.90;10.00;97731.00;;;;340479;28;91598;-91
2022/04/24 00:23:54;;;;;;;;;;;9.50;99.90;10.00;97734.00;;;;338952;28;86795;-91
2022/04/24 00:24:06;;;;;;;;;;;9.50;99.90;10.00;97730.00;;;;340646;28;87352;-92
2022/04/24 00:24:18;;;;;;;;;;;9.50;99.90;10.00;97732.00;;;;339029;28;87536;-92
2022/04/24 00:24:32;;;;;;;;;;;9.50;99.90;10.00;97738.00;;;;342783;28;89609;-91
2022/04/24 00:24:44;;;;;;;;;;;9.50;99.90;10.00;97746.00;;;;344027;28;13382;-92
2022/04/24 00:24:56;;;;;;;;;;;9.50;99.90;10.00;97742.00;;;;341099;28;77080;-92
2022/04/24 00:25:08;;;;;;;;;;;9.60;99.90;10.10;97736.00;;;;342710;28;87626;-91
2022/04/24 00:25:20;;;;;;;;;;;9.50;99.90;10.00;97741.00;;;;340578;28;90065;-92
2022/04/24 00:25:31;;;;;;;;;;;9.50;99.90;10.00;97742.00;;;;341665;28;87712;-91
2022/04/24 00:25:43;;;;;;;;;;;9.50;99.90;10.00;97742.00;;;;340063;28;90605;-92
2022/04/24 00:25:55;;;;;;;;;;;9.50;99.90;9.90;97734.00;;;;341545;28;87396;-90
2022/04/24 00:26:07;;;;;;;;;;;9.50;99.90;9.90;97732.00;;;;341845;28;91409;-91
2022/04/24 00:26:19;;;;;;;;;;;9.50;99.90;9.90;97732.00;;;;341588;28;87014;-91
2022/04/24 00:26:30;;;;;;;;;;;9.50;99.90;10.00;97737.00;;;;340652;28;89255;-91
2022/04/24 00:26:42;;;;;;;;;;;9.50;99.90;10.00;97740.00;;;;339864;28;87940;-91
2022/04/24 00:26:54;;;;;;;;;;;9.50;99.90;9.90;97740.00;;;;341912;28;89744;-91
2022/04/24 00:27:07;;;;;;;;;;;9.50;99.90;10.00;97740.00;;;;340172;28;87337;-91
2022/04/24 00:27:19;;;;;;;;;;;9.50;99.90;10.00;97732.00;;;;345434;28;10764;-92
2022/04/24 00:27:32;;;;;;;;;;;9.50;99.90;10.00;97740.00;;;;346768;28;11182;-91
2022/04/24 00:27:44;;;;;;;;;;;9.50;99.90;10.00;97743.00;;;;345442;28;12380;-92
2022/04/24 00:27:56;;;;;;;;;;;9.50;99.90;10.00;97739.00;;;;345281;28;13201;-92
2022/04/24 00:28:07;;;;;;;;;;;9.50;99.90;9.90;97744.00;;;;344120;28;10687;-92
2022/04/24 00:28:19;;;;;;;;;;;9.50;99.90;9.90;97741.00;;;;342816;28;86314;-92
2022/04/24 00:28:31;;;;;;;;;;;9.50;99.90;9.90;97730.00;;;;340472;28;89384;-91
2022/04/24 00:28:43;;;;;;;;;;;9.50;99.90;10.00;97747.00;;;;340675;28;87194;-91
2022/04/24 00:28:55;;;;;;;;;;;9.50;99.90;9.90;97743.00;;;;343121;28;90127;-92
2022/04/24 00:29:08;;;;;;;;;;;9.50;99.90;9.90;97737.00;;;;338768;28;88380;-91
2022/04/24 00:29:20;;;;;;;;;;;9.50;99.90;9.90;97750.00;;;;340630;28;90724;-91
2022/04/24 00:29:32;;;;;;;;;;;9.50;99.90;10.00;97747.00;;;;340259;28;86852;-91
2022/04/24 00:29:44;;;;;;;;;;;9.50;99.90;10.00;97743.00;;;;341770;28;89863;-91
2022/04/24 00:29:56;;;;;;;;;;;9.50;99.90;9.90;97741.00;;;;340345;28;87040;-91
2022/04/24 00:30:08;;;;;;;;;;;9.50;99.90;9.90;97748.00;;;;339222;28;89903;-92
2022/04/24 00:30:20;;;;;;;;;;;9.50;99.90;9.90;97738.00;;;;338909;28;88398;-91
2022/04/24 00:30:32;;;;;;;;;;;9.50;99.90;9.90;97746.00;;;;339210;28;90945;-91
2022/04/24 00:30:44;;;;;;;;;;;9.50;99.90;9.90;97742.00;;;;340275;28;86916;-91
2022/04/24 00:30:56;;;;;;;;;;;9.50;99.90;9.90;97750.00;;;;340454;28;91310;-91
2022/04/24 00:31:08;;;;;;;;;;;9.50;99.90;9.90;97745.00;;;;338703;28;86876;-91
2022/04/24 00:31:20;;;;;;;;;;;9.50;99.90;9.90;97747.00;;;;341869;28;91517;-91
2022/04/24 00:31:32;;;;;;;;;;;9.50;99.90;9.90;97747.00;;;;341725;28;87461;-91
2022/04/24 00:31:43;;;;;;;;;;;9.50;99.90;10.00;97759.00;;;;340144;28;90057;-91
2022/04/24 00:31:55;;;;;;;;;;;9.50;99.90;9.90;97752.00;;;;340274;28;88072;-91
2022/04/24 00:32:08;;;;;;;;;;;9.50;99.90;9.90;97755.00;;;;341922;28;90654;-91
2022/04/24 00:32:20;;;;;;;;;;;9.50;99.90;9.80;97752.00;;;;343124;28;86901;-92
2022/04/24 00:32:31;;;;;;;;;;;9.50;99.90;9.90;97750.00;;;;340499;28;90684;-92
2022/04/24 00:32:43;;;;;;;;;;;9.50;99.90;9.90;97755.00;;;;341198;28;86877;-92
2022/04/24 00:32:55;;;;;;;;;;;9.50;99.90;9.90;97751.00;;;;340560;28;91010;-91
2022/04/24 00:33:07;;;;;;;;;;;9.50;99.90;10.00;97751.00;;;;341583;28;87157;-90
2022/04/24 00:33:19;;;;;;;;;;;9.50;99.90;9.90;97751.00;;;;340529;28;90929;-92
2022/04/24 00:33:30;;;;;;;;;;;9.50;99.90;9.90;97770.00;;;;340006;28;88866;-91
2022/04/24 00:33:42;;;;;;;;;;;9.50;99.90;9.90;97754.00;;;;341899;28;90818;-92
2022/04/24 00:33:54;;;;;;;;;;;9.50;99.90;9.80;97756.00;;;;341577;28;87024;-91
2022/04/24 00:34:06;;;;;;;;;;;9.40;99.90;9.90;97753.00;;;;341910;28;91489;-91
2022/04/24 00:34:18;;;;;;;;;;;9.40;99.90;9.90;97767.00;;;;341561;28;85301;-91
2022/04/24 00:34:30;;;;;;;;;;;9.40;99.90;9.90;97766.00;;;;341853;28;89250;-91
2022/04/24 00:34:42;;;;;;;;;;;9.50;99.90;9.80;97771.00;;;;339868;28;88552;-91
2022/04/24 00:34:54;;;;;;;;;;;9.50;99.90;9.80;97757.00;;;;339436;28;90775;-91
2022/04/24 00:35:07;;;;;;;;;;;9.40;99.90;9.90;97760.00;;;;340265;28;87857;-91
2022/04/24 00:35:19;;;;;;;;;;;9.40;99.90;9.80;97750.00;;;;340672;28;91138;-91
2022/04/24 00:35:31;;;;;;;;;;;9.40;99.90;9.80;97756.00;;;;339019;28;87199;-92
2022/04/24 00:35:43;;;;;;;;;;;9.40;99.90;9.80;97759.00;;;;339601;28;91244;-91
2022/04/24 00:35:55;;;;;;;;;;;9.40;99.90;9.80;97761.00;;;;340139;28;87877;-92
2022/04/24 00:36:06;;;;;;;;;;;9.40;99.90;9.80;97765.00;;;;340575;28;90842;-91
2022/04/24 00:36:18;;;;;;;;;;;9.40;99.90;9.80;97753.00;;;;339062;28;87441;-91
2022/04/24 00:36:30;;;;;;;;;;;9.40;99.90;9.90;97756.00;;;;340623;28;88862;-91
2022/04/24 00:36:43;;;;;;;;;;;9.40;99.90;9.80;97760.00;;;;340321;28;87425;-92
2022/04/24 00:36:55;;;;;;;;;;;9.40;99.90;9.80;97759.00;;;;341971;28;89894;-91
2022/04/24 00:37:07;;;;;;;;;;;9.40;99.90;9.80;97759.00;;;;339988;28;87269;-90
2022/04/24 00:37:19;;;;;;;;;;;9.40;99.90;9.80;97746.00;;;;342006;28;89669;-91
2022/04/24 00:37:31;;;;;;;;;;;9.40;99.90;9.80;97761.00;;;;340219;28;87078;-91
2022/04/24 00:37:43;;;;;;;;;;;9.40;99.90;9.80;97766.00;;;;342376;28;89728;-92
2022/04/24 00:37:55;;;;;;;;;;;9.40;99.90;9.80;97765.00;;;;341721;28;88126;-92
2022/04/24 00:38:07;;;;;;;;;;;9.40;99.90;9.80;97762.00;;;;340556;28;91840;-91
2022/04/24 00:38:19;;;;;;;;;;;9.40;99.90;9.90;97766.00;;;;339082;28;86792;-92
2022/04/24 00:38:37;;;;;;;;;;;9.40;99.90;9.80;97762.00;;;;339172;28;90201;-91
2022/04/24 00:38:48;;;;;;;;;;;9.40;99.90;9.80;97765.00;;;;342770;28;87361;-92
2022/04/24 00:39:00;;;;;;;;;;;9.40;99.90;9.90;97755.00;;;;343106;28;91039;-91
2022/04/24 00:39:12;;;;;;;;;;;9.40;99.90;9.90;97768.00;;;;343018;28;87492;-91
2022/04/24 00:39:24;;;;;;;;;;;9.40;99.90;9.90;97762.00;;;;340613;28;89420;-91
2022/04/24 00:39:36;;;;;;;;;;;9.40;99.90;9.90;97773.00;;;;341719;28;86930;-91
2022/04/24 00:39:48;;;;;;;;;;;9.40;99.90;9.90;97766.00;;;;340688;28;89635;-91
2022/04/24 00:40:00;;;;;;;;;;;9.40;99.90;9.90;97762.00;;;;340435;28;87484;-91
2022/04/24 00:40:11;;;;;;;;;;;9.40;99.90;9.90;97766.00;;;;340609;28;91360;-91
2022/04/24 00:40:23;;;;;;;;;;;9.40;99.90;9.90;97760.00;;;;343067;28;86907;-91
2022/04/24 00:40:35;;;;;;;;;;;9.40;99.90;10.00;97756.00;;;;341967;28;89069;-91
2022/04/24 00:40:48;;;;;;;;;;;9.40;99.90;10.00;97759.00;;;;341232;28;87896;-92
2022/04/24 00:41:01;;;;;;;;;;;9.40;99.90;9.90;97766.00;;;;341789;28;91946;-92
2022/04/24 00:41:13;;;;;;;;;;;9.40;99.90;9.90;97762.00;;;;340287;28;87113;-91
2022/04/24 00:41:25;;;;;;;;;;;9.40;99.90;9.80;97759.00;;;;342019;28;89933;-91
2022/04/24 00:41:46;;;;;;;;;;;9.40;99.90;9.90;97765.00;;;;340385;28;88581;-91
2022/04/24 00:41:58;;;;;;;;;;;9.40;99.90;9.80;97762.00;;;;340691;28;89431;-92
2022/04/24 00:42:10;;;;;;;;;;;9.40;99.90;9.80;97759.00;;;;341768;28;87545;-91
2022/04/24 00:42:22;;;;;;;;;;;9.40;99.90;9.80;97765.00;;;;342050;28;89340;-91
2022/04/24 00:42:34;;;;;;;;;;;9.40;99.90;9.80;97752.00;;;;340151;28;87237;-91
2022/04/24 00:42:45;;;;;;;;;;;9.40;99.90;9.80;97765.00;;;;340779;28;89381;-91
2022/04/24 00:42:57;;;;;;;;;;;9.40;99.90;9.80;97756.00;;;;340313;28;88117;-91
2022/04/24 00:43:09;;;;;;;;;;;9.40;99.90;9.90;97770.00;;;;339234;28;91007;-91
2022/04/24 00:43:21;;;;;;;;;;;9.40;99.90;9.90;97756.00;;;;340423;28;87638;-91
2022/04/24 00:43:33;;;;;;;;;;;9.40;99.90;9.80;97749.00;;;;340664;28;91283;-91
2022/04/24 00:43:54;;;;;;;;;;;9.40;99.90;9.80;97761.00;;;;339624;28;88058;-91
2022/04/24 00:44:05;;;;;;;;;;;9.40;99.90;9.80;97762.00;;;;340670;28;90779;-92
2022/04/24 00:44:18;;;;;;;;;;;9.40;99.90;9.80;97758.00;;;;338966;28;87085;-91
2022/04/24 00:44:32;;;;;;;;;;;9.40;99.90;9.80;97760.00;;;;341811;28;91081;-91
2022/04/24 00:44:44;;;;;;;;;;;9.40;99.90;9.80;97756.00;;;;339865;28;88658;-90
2022/04/24 00:44:56;;;;;;;;;;;9.40;99.90;9.80;97757.00;;;;340685;28;90289;-91
2022/04/24 00:45:08;;;;;;;;;;;9.40;99.90;9.90;97766.00;;;;340314;28;86916;-91
2022/04/24 00:45:20;;;;;;;;;;;9.40;99.90;9.90;97767.00;;;;340722;28;89896;-90
2022/04/24 00:45:32;;;;;;;;;;;9.40;99.90;9.80;97756.00;;;;341812;28;87166;-91
2022/04/24 00:45:43;;;;;;;;;;;9.40;99.90;9.90;97760.00;;;;341924;28;91097;-91
2022/04/24 00:46:28;;;;;;;;;;;9.40;99.90;9.90;97752.00;;;;339010;28;87942;-91
2022/04/24 00:47:01;;;;;;;;;;;9.40;99.90;9.80;97754.00;;;;339640;28;89440;-91
2022/04/24 00:47:15;;;;;;;;;;;9.40;99.90;9.80;97766.00;;;;339644;28;87207;-91
2022/04/24 00:47:27;;;;;;;;;;;9.40;99.90;9.80;97760.00;;;;340522;28;91175;-91
2022/04/24 00:47:41;;;;;;;;;;;9.40;99.90;9.70;97753.00;;;;341736;28;87693;-91
2022/04/24 00:47:53;;;;;;;;;;;9.30;99.90;9.70;97755.00;;;;339026;28;90131;-90
2022/04/24 00:48:05;;;;;;;;;;;9.40;99.90;9.80;97751.00;;;;343035;28;88042;-91
2022/04/24 00:48:17;;;;;;;;;;;9.30;99.90;9.80;97757.00;;;;339296;28;90033;-90
2022/04/24 00:48:49;;;;;;;;;;;9.40;99.90;9.80;97760.00;;;;341576;28;87950;-90
2022/04/24 00:49:01;;;;;;;;;;;9.40;99.90;9.80;97754.00;;;;340492;28;90023;-91
2022/04/24 00:49:12;;;;;;;;;;;9.30;99.90;9.80;97757.00;;;;340325;28;86592;-92
2022/04/24 00:49:24;;;;;;;;;;;9.40;99.90;9.80;97746.00;;;;341878;28;91513;-91
2022/04/24 00:49:36;;;;;;;;;;;9.40;99.90;9.80;97756.00;;;;341603;28;88163;-90
2022/04/24 00:49:48;;;;;;;;;;;9.40;99.90;9.80;97755.00;;;;341435;28;89678;-90
2022/04/24 00:50:00;;;;;;;;;;;9.40;99.90;9.80;97749.00;;;;342965;28;88536;-90
2022/04/24 00:50:13;;;;;;;;;;;9.40;99.90;9.80;97754.00;;;;340565;28;88439;-91
2022/04/24 00:50:25;;;;;;;;;;;9.40;99.90;9.80;97755.00;;;;341345;28;87033;-91
2022/04/24 00:50:39;;;;;;;;;;;9.40;99.90;9.80;97756.00;;;;341902;28;91273;-91
2022/04/24 00:50:51;;;;;;;;;;;9.40;99.90;9.80;97755.00;;;;341774;28;86990;-91
2022/04/24 00:51:03;;;;;;;;;;;9.40;99.90;9.80;97757.00;;;;341917;28;90742;-91
2022/04/24 00:51:14;;;;;;;;;;;9.40;99.90;9.80;97760.00;;;;341706;28;86825;-91
2022/04/24 00:51:26;;;;;;;;;;;9.40;99.90;9.80;97769.00;;;;340451;28;90179;-91
2022/04/24 00:51:38;;;;;;;;;;;9.40;99.90;9.80;97758.00;;;;340329;28;87854;-91
2022/04/24 00:51:50;;;;;;;;;;;9.40;99.90;9.80;97766.00;;;;340554;28;90854;-91
2022/04/24 00:52:02;;;;;;;;;;;9.40;99.90;9.80;97757.00;;;;339003;28;88365;-91
2022/04/24 00:52:14;;;;;;;;;;;9.40;99.90;9.70;97754.00;;;;342031;28;89368;-91
2022/04/24 00:52:26;;;;;;;;;;;9.30;99.90;9.70;97753.00;;;;340004;28;86162;-90
2022/04/24 00:52:38;;;;;;;;;;;9.30;99.90;9.80;97758.00;;;;339037;28;91297;-91
2022/04/24 00:52:50;;;;;;;;;;;9.30;99.90;9.80;97753.00;;;;340191;28;88107;-92
2022/04/24 00:53:01;;;;;;;;;;;9.40;99.90;9.90;97755.00;;;;341606;28;90876;-91
2022/04/24 00:53:13;;;;;;;;;;;9.30;99.90;9.80;97747.00;;;;340208;28;87568;-90
2022/04/24 00:53:25;;;;;;;;;;;9.30;99.90;9.80;97756.00;;;;340438;28;91137;-91
2022/04/24 00:53:37;;;;;;;;;;;9.40;99.90;9.80;97761.00;;;;341677;28;87964;-91
2022/04/24 00:53:49;;;;;;;;;;;9.30;99.90;9.80;97756.00;;;;341577;28;91358;-91
2022/04/24 00:54:01;;;;;;;;;;;9.40;99.90;9.80;97759.00;;;;340271;28;87859;-91
2022/04/24 00:54:13;;;;;;;;;;;9.40;99.90;9.80;97753.00;;;;339248;28;89446;-91
2022/04/24 00:54:25;;;;;;;;;;;9.40;99.90;9.80;97752.00;;;;340316;28;86881;-89
2022/04/24 00:54:38;;;;;;;;;;;9.30;99.90;9.80;97755.00;;;;341892;28;89742;-91
2022/04/24 00:54:50;;;;;;;;;;;9.30;99.90;9.80;97759.00;;;;341759;28;87867;-91
2022/04/24 00:55:02;;;;;;;;;;;9.40;99.90;9.80;97760.00;;;;340526;28;89813;-90
2022/04/24 00:55:14;;;;;;;;;;;9.30;99.90;9.80;97761.00;;;;341850;28;87798;-91
2022/04/24 00:55:25;;;;;;;;;;;9.30;99.90;9.80;97750.00;;;;342084;28;90083;-91
2022/04/24 00:55:38;;;;;;;;;;;9.30;99.90;9.80;97752.00;;;;342827;28;86214;-91
2022/04/24 00:55:49;;;;;;;;;;;9.30;99.90;9.80;97758.00;;;;340291;28;92540;-91
2022/04/24 00:56:02;;;;;;;;;;;9.30;99.90;9.80;97756.00;;;;340592;28;86506;-91
2022/04/24 00:56:14;;;;;;;;;;;9.30;99.90;9.70;97755.00;;;;340767;28;89191;-91
2022/04/24 00:56:30;;;;;;;;;;;9.40;99.90;9.80;97758.00;;;;339076;28;88410;-91
2022/04/24 00:56:43;;;;;;;;;;;9.30;99.90;9.90;97751.00;;;;341956;28;90737;-91
2022/04/24 00:56:55;;;;;;;;;;;9.30;99.90;9.90;97765.00;;;;340577;28;86950;-91
2022/04/24 00:57:08;;;;;;;;;;;9.40;99.90;9.80;97758.00;;;;344865;28;89755;-91
2022/04/24 00:57:19;;;;;;;;;;;9.40;99.90;9.80;97753.00;;;;341905;28;87977;-91
2022/04/24 00:57:31;;;;;;;;;;;9.30;99.90;9.90;97761.00;;;;342071;28;90601;-91
2022/04/24 00:57:43;;;;;;;;;;;9.40;99.90;9.90;97765.00;;;;341773;28;88196;-91
2022/04/24 00:57:55;;;;;;;;;;;9.40;99.90;9.90;97762.00;;;;340710;28;90822;-91
2022/04/24 00:58:07;;;;;;;;;;;9.40;99.90;10.00;97759.00;;;;340361;28;86633;-91
2022/04/24 00:58:18;;;;;;;;;;;9.40;99.90;9.90;97759.00;;;;343604;28;90201;-91
2022/04/24 00:58:30;;;;;;;;;;;9.40;99.90;9.80;97757.00;;;;340442;28;87170;-91
2022/04/24 00:58:42;;;;;;;;;;;9.40;99.90;9.80;97757.00;;;;340406;28;89799;-91
2022/04/24 00:58:54;;;;;;;;;;;9.40;99.90;9.80;97758.00;;;;340630;28;87206;-91
2022/04/24 00:59:07;;;;;;;;;;;9.40;99.90;9.80;97775.00;;;;339385;28;89865;-91
2022/04/24 00:59:18;;;;;;;;;;;9.40;99.90;9.80;97765.00;;;;338859;28;86888;-91
2022/04/24 00:59:31;;;;;;;;;;;9.40;99.90;9.80;97761.00;;;;340773;28;89922;-91
2022/04/24 00:59:43;;;;;;;;;;;9.40;99.90;9.80;97769.00;;;;340406;28;86985;-91
2022/04/24 00:59:55;;;;;;;;;;;9.40;99.90;9.80;97767.00;;;;342068;28;90585;-91
2022/04/24 01:00:08;;;;;;;;;;;9.40;99.90;9.90;97769.00;;;;340529;28;86786;-91
2022/04/24 01:00:20;;;;;;;;;;;9.40;99.90;9.80;97762.00;;;;340878;28;86604;-91
2022/04/24 01:00:31;;;;;;;;;;;9.40;99.90;9.80;97769.00;;;;340453;28;87789;-91
2022/04/24 01:00:44;;;;;;;;;;;9.40;99.90;9.80;97767.00;;;;340861;28;89671;-91
2022/04/24 01:00:56;;;;;;;;;;;9.40;99.90;9.80;97770.00;;;;340562;28;86962;-91
2022/04/24 01:01:08;;;;;;;;;;;9.40;99.90;9.80;97770.00;;;;340630;28;89594;-91
2022/04/24 01:01:20;;;;;;;;;;;9.40;99.90;9.90;97775.00;;;;340262;28;87900;-91
2022/04/24 01:01:32;;;;;;;;;;;9.40;99.90;9.80;97774.00;;;;342107;28;91127;-91
2022/04/24 01:01:45;;;;;;;;;;;9.40;99.90;9.80;97777.00;;;;339981;28;87658;-91
2022/04/24 01:01:57;;;;;;;;;;;9.40;99.90;9.80;97779.00;;;;342008;28;89948;-91
2022/04/24 01:02:09;;;;;;;;;;;9.40;99.90;9.80;97781.00;;;;340466;28;87810;-91
2022/04/24 01:02:21;;;;;;;;;;;9.40;99.90;9.90;97783.00;;;;340666;28;90398;-90
2022/04/24 01:02:34;;;;;;;;;;;9.40;99.90;9.80;97782.00;;;;340500;28;87186;-91